sensor_id;sensor_type;location;lat;lon;timestamp;P1;durP1;ratioP1;P2;durP2;ratioP2
75437;SDS011;64015;49.392;15.582;2023-02-08T00:20:58;15.32;;;6.43;;
75437;SDS011;64015;49.392;15.582;2023-02-08T00:24:12;25.05;;;10.23;;
75437;SDS011;64015;49.392;15.582;2023-02-08T00:26:45;31.92;;;10.40;;
75437;SDS011;64015;49.392;15.582;2023-02-08T00:37:35;24.20;;;9.20;;
75437;SDS011;64015;49.392;15.582;2023-02-08T00:40:03;30.85;;;10.95;;
75437;SDS011;64015;49.392;15.582;2023-02-08T00:42:30;31.90;;;13.05;;
75437;SDS011;64015;49.392;15.582;2023-02-08T00:44:56;29.15;;;10.90;;
75437;SDS011;64015;49.392;15.582;2023-02-08T00:47:23;26.20;;;11.15;;
75437;SDS011;64015;49.392;15.582;2023-02-08T00:49:49;23.08;;;11.57;;
75437;SDS011;64015;49.392;15.582;2023-02-08T00:52:15;31.33;;;11.20;;
75437;SDS011;64015;49.392;15.582;2023-02-08T00:54:41;36.65;;;13.65;;
75437;SDS011;64015;49.392;15.582;2023-02-08T00:57:07;35.17;;;12.43;;
75437;SDS011;64015;49.392;15.582;2023-02-08T00:59:33;41.22;;;12.98;;
75437;SDS011;64015;49.392;15.582;2023-02-08T01:01:59;40.45;;;13.40;;
75437;SDS011;64015;49.392;15.582;2023-02-08T01:04:28;28.00;;;10.80;;
75437;SDS011;64015;49.392;15.582;2023-02-08T01:06:54;36.53;;;12.10;;
75437;SDS011;64015;49.392;15.582;2023-02-08T01:09:23;33.88;;;12.20;;
75437;SDS011;64015;49.392;15.582;2023-02-08T01:11:49;38.45;;;13.30;;
75437;SDS011;64015;49.392;15.582;2023-02-08T01:14:15;32.20;;;12.15;;
75437;SDS011;64015;49.392;15.582;2023-02-08T01:16:41;26.67;;;13.18;;
75437;SDS011;64015;49.392;15.582;2023-02-08T01:19:07;29.63;;;12.50;;
75437;SDS011;64015;49.392;15.582;2023-02-08T01:21:35;25.08;;;10.32;;
75437;SDS011;64015;49.392;15.582;2023-02-08T01:24:05;35.08;;;12.57;;
75437;SDS011;64015;49.392;15.582;2023-02-08T01:26:40;24.00;;;10.90;;
75437;SDS011;64015;49.392;15.582;2023-02-08T01:29:12;30.48;;;11.57;;
75437;SDS011;64015;49.392;15.582;2023-02-08T01:35:35;26.77;;;10.23;;
75437;SDS011;64015;49.392;15.582;2023-02-08T01:38:00;21.92;;;11.40;;
75437;SDS011;64015;49.392;15.582;2023-02-08T01:40:26;27.63;;;10.63;;
75437;SDS011;64015;49.392;15.582;2023-02-08T01:43:01;28.42;;;9.88;;
75437;SDS011;64015;49.392;15.582;2023-02-08T01:45:29;24.77;;;10.40;;
75437;SDS011;64015;49.392;15.582;2023-02-08T01:48:01;28.00;;;11.32;;
75437;SDS011;64015;49.392;15.582;2023-02-08T01:50:33;23.75;;;9.95;;
75437;SDS011;64015;49.392;15.582;2023-02-08T01:53:19;26.88;;;12.20;;
75437;SDS011;64015;49.392;15.582;2023-02-08T01:56:14;22.48;;;8.93;;
75437;SDS011;64015;49.392;15.582;2023-02-08T01:58:48;27.40;;;10.25;;
75437;SDS011;64015;49.392;15.582;2023-02-08T02:01:37;26.80;;;10.75;;
75437;SDS011;64015;49.392;15.582;2023-02-08T02:04:07;23.80;;;10.32;;
75437;SDS011;64015;49.392;15.582;2023-02-08T02:06:56;29.75;;;11.90;;
75437;SDS011;64015;49.392;15.582;2023-02-08T02:09:53;24.40;;;9.93;;
75437;SDS011;64015;49.392;15.582;2023-02-08T02:13:24;24.52;;;9.93;;
75437;SDS011;64015;49.392;15.582;2023-02-08T02:35:14;25.80;;;9.77;;
75437;SDS011;64015;49.392;15.582;2023-02-08T02:43:54;26.02;;;10.25;;
75437;SDS011;64015;49.392;15.582;2023-02-08T02:46:45;28.45;;;10.85;;
75437;SDS011;64015;49.392;15.582;2023-02-08T02:52:10;27.92;;;10.82;;
75437;SDS011;64015;49.392;15.582;2023-02-08T02:55:24;25.05;;;8.90;;
75437;SDS011;64015;49.392;15.582;2023-02-08T03:48:16;17.70;;;8.35;;
75437;SDS011;64015;49.392;15.582;2023-02-08T03:51:17;14.85;;;8.07;;
75437;SDS011;64015;49.392;15.582;2023-02-08T04:12:22;27.08;;;10.10;;
75437;SDS011;64015;49.392;15.582;2023-02-08T04:14:48;33.72;;;11.57;;
75437;SDS011;64015;49.392;15.582;2023-02-08T04:17:13;28.10;;;9.35;;
75437;SDS011;64015;49.392;15.582;2023-02-08T04:19:39;28.58;;;9.38;;
75437;SDS011;64015;49.392;15.582;2023-02-08T04:22:05;19.52;;;8.23;;
75437;SDS011;64015;49.392;15.582;2023-02-08T04:24:37;29.38;;;11.50;;
75437;SDS011;64015;49.392;15.582;2023-02-08T04:27:03;42.83;;;13.25;;
75437;SDS011;64015;49.392;15.582;2023-02-08T04:34:55;28.45;;;9.02;;
75437;SDS011;64015;49.392;15.582;2023-02-08T04:51:28;12.02;;;7.03;;
75437;SDS011;64015;49.392;15.582;2023-02-08T04:54:14;19.02;;;8.75;;
75437;SDS011;64015;49.392;15.582;2023-02-08T04:56:51;20.95;;;8.18;;
75437;SDS011;64015;49.392;15.582;2023-02-08T04:59:17;21.63;;;8.35;;
75437;SDS011;64015;49.392;15.582;2023-02-08T05:08:54;20.90;;;8.65;;
75437;SDS011;64015;49.392;15.582;2023-02-08T05:19:09;18.27;;;7.85;;
75437;SDS011;64015;49.392;15.582;2023-02-08T05:22:00;19.08;;;7.25;;
75437;SDS011;64015;49.392;15.582;2023-02-08T05:24:27;18.13;;;7.60;;
75437;SDS011;64015;49.392;15.582;2023-02-08T05:26:53;19.33;;;7.57;;
75437;SDS011;64015;49.392;15.582;2023-02-08T05:29:19;26.30;;;8.82;;
75437;SDS011;64015;49.392;15.582;2023-02-08T05:31:45;21.35;;;8.60;;
75437;SDS011;64015;49.392;15.582;2023-02-08T05:34:11;22.02;;;8.77;;
75437;SDS011;64015;49.392;15.582;2023-02-08T05:36:36;20.17;;;9.32;;
75437;SDS011;64015;49.392;15.582;2023-02-08T05:39:02;27.20;;;11.75;;
75437;SDS011;64015;49.392;15.582;2023-02-08T05:41:28;32.50;;;10.43;;
75437;SDS011;64015;49.392;15.582;2023-02-08T05:43:54;23.15;;;8.10;;
75437;SDS011;64015;49.392;15.582;2023-02-08T05:46:20;22.55;;;8.93;;
75437;SDS011;64015;49.392;15.582;2023-02-08T05:48:49;23.92;;;8.60;;
75437;SDS011;64015;49.392;15.582;2023-02-08T05:51:14;18.83;;;9.93;;
75437;SDS011;64015;49.392;15.582;2023-02-08T05:53:40;28.77;;;9.80;;
75437;SDS011;64015;49.392;15.582;2023-02-08T05:56:07;21.58;;;8.82;;
75437;SDS011;64015;49.392;15.582;2023-02-08T05:58:33;31.15;;;7.93;;
75437;SDS011;64015;49.392;15.582;2023-02-08T06:00:59;30.77;;;8.32;;
75437;SDS011;64015;49.392;15.582;2023-02-08T06:03:25;22.42;;;7.97;;
75437;SDS011;64015;49.392;15.582;2023-02-08T06:05:55;25.48;;;9.43;;
75437;SDS011;64015;49.392;15.582;2023-02-08T06:08:25;29.95;;;9.57;;
75437;SDS011;64015;49.392;15.582;2023-02-08T06:10:51;17.63;;;7.60;;
75437;SDS011;64015;49.392;15.582;2023-02-08T06:13:17;16.55;;;6.82;;
75437;SDS011;64015;49.392;15.582;2023-02-08T06:15:42;24.88;;;8.82;;
75437;SDS011;64015;49.392;15.582;2023-02-08T06:18:09;30.35;;;9.70;;
75437;SDS011;64015;49.392;15.582;2023-02-08T06:20:36;22.05;;;8.55;;
75437;SDS011;64015;49.392;15.582;2023-02-08T06:23:02;25.17;;;9.77;;
75437;SDS011;64015;49.392;15.582;2023-02-08T06:25:27;22.58;;;9.02;;
75437;SDS011;64015;49.392;15.582;2023-02-08T06:27:55;21.17;;;8.18;;
75437;SDS011;64015;49.392;15.582;2023-02-08T06:30:21;27.48;;;10.77;;
75437;SDS011;64015;49.392;15.582;2023-02-08T06:32:47;33.10;;;11.95;;
75437;SDS011;64015;49.392;15.582;2023-02-08T06:35:12;23.98;;;9.40;;
75437;SDS011;64015;49.392;15.582;2023-02-08T06:37:38;23.35;;;8.90;;
75437;SDS011;64015;49.392;15.582;2023-02-08T06:40:04;17.98;;;8.68;;
75437;SDS011;64015;49.392;15.582;2023-02-08T06:42:30;25.83;;;10.25;;
75437;SDS011;64015;49.392;15.582;2023-02-08T06:44:59;32.28;;;9.85;;
75437;SDS011;64015;49.392;15.582;2023-02-08T06:47:25;20.35;;;9.15;;
75437;SDS011;64015;49.392;15.582;2023-02-08T06:49:51;20.92;;;8.25;;
75437;SDS011;64015;49.392;15.582;2023-02-08T06:52:18;23.95;;;9.07;;
75437;SDS011;64015;49.392;15.582;2023-02-08T06:54:44;18.67;;;9.75;;
75437;SDS011;64015;49.392;15.582;2023-02-08T06:57:10;26.15;;;10.50;;
75437;SDS011;64015;49.392;15.582;2023-02-08T06:59:37;31.85;;;10.43;;
75437;SDS011;64015;49.392;15.582;2023-02-08T07:02:04;27.25;;;11.18;;
75437;SDS011;64015;49.392;15.582;2023-02-08T07:04:30;22.65;;;10.45;;
75437;SDS011;64015;49.392;15.582;2023-02-08T07:07:17;45.58;;;18.05;;
75437;SDS011;64015;49.392;15.582;2023-02-08T07:09:43;56.35;;;19.58;;
75437;SDS011;64015;49.392;15.582;2023-02-08T07:12:10;40.53;;;16.38;;
75437;SDS011;64015;49.392;15.582;2023-02-08T07:14:39;36.10;;;12.13;;
75437;SDS011;64015;49.392;15.582;2023-02-08T07:17:06;33.70;;;12.23;;
75437;SDS011;64015;49.392;15.582;2023-02-08T07:19:33;33.08;;;12.18;;
75437;SDS011;64015;49.392;15.582;2023-02-08T07:21:59;27.98;;;9.85;;
75437;SDS011;64015;49.392;15.582;2023-02-08T07:24:29;29.60;;;11.10;;
75437;SDS011;64015;49.392;15.582;2023-02-08T07:26:58;33.33;;;9.48;;
75437;SDS011;64015;49.392;15.582;2023-02-08T07:29:28;21.50;;;10.52;;
75437;SDS011;64015;49.392;15.582;2023-02-08T07:32:03;22.55;;;9.38;;
75437;SDS011;64015;49.392;15.582;2023-02-08T07:34:31;30.75;;;14.40;;
75437;SDS011;64015;49.392;15.582;2023-02-08T07:37:08;26.20;;;10.10;;
75437;SDS011;64015;49.392;15.582;2023-02-08T07:39:33;34.97;;;12.70;;
75437;SDS011;64015;49.392;15.582;2023-02-08T07:41:59;38.33;;;14.57;;
75437;SDS011;64015;49.392;15.582;2023-02-08T07:44:25;38.40;;;14.20;;
75437;SDS011;64015;49.392;15.582;2023-02-08T07:46:51;26.98;;;10.60;;
75437;SDS011;64015;49.392;15.582;2023-02-08T07:49:17;37.58;;;13.73;;
75437;SDS011;64015;49.392;15.582;2023-02-08T07:51:43;46.58;;;15.38;;
75437;SDS011;64015;49.392;15.582;2023-02-08T07:54:08;34.22;;;14.55;;
75437;SDS011;64015;49.392;15.582;2023-02-08T07:56:34;39.42;;;16.23;;
75437;SDS011;64015;49.392;15.582;2023-02-08T07:59:00;45.20;;;15.65;;
75437;SDS011;64015;49.392;15.582;2023-02-08T08:01:26;45.72;;;18.25;;
75437;SDS011;64015;49.392;15.582;2023-02-08T08:03:51;44.17;;;16.85;;
75437;SDS011;64015;49.392;15.582;2023-02-08T08:06:18;46.13;;;18.08;;
75437;SDS011;64015;49.392;15.582;2023-02-08T08:08:45;47.97;;;17.92;;
75437;SDS011;64015;49.392;15.582;2023-02-08T08:11:12;51.92;;;20.85;;
75437;SDS011;64015;49.392;15.582;2023-02-08T08:14:03;42.97;;;17.10;;
75437;SDS011;64015;49.392;15.582;2023-02-08T08:16:28;44.63;;;19.15;;
75437;SDS011;64015;49.392;15.582;2023-02-08T08:18:54;49.17;;;19.90;;
75437;SDS011;64015;49.392;15.582;2023-02-08T08:21:35;49.72;;;18.80;;
75437;SDS011;64015;49.392;15.582;2023-02-08T08:24:01;57.08;;;17.98;;
75437;SDS011;64015;49.392;15.582;2023-02-08T08:26:27;49.15;;;18.92;;
75437;SDS011;64015;49.392;15.582;2023-02-08T08:29:00;48.60;;;16.90;;
75437;SDS011;64015;49.392;15.582;2023-02-08T08:31:45;44.70;;;17.40;;
75437;SDS011;64015;49.392;15.582;2023-02-08T08:34:10;50.53;;;19.50;;
75437;SDS011;64015;49.392;15.582;2023-02-08T08:36:36;47.22;;;19.08;;
75437;SDS011;64015;49.392;15.582;2023-02-08T08:39:05;49.10;;;19.15;;
75437;SDS011;64015;49.392;15.582;2023-02-08T08:41:31;63.75;;;21.67;;
75437;SDS011;64015;49.392;15.582;2023-02-08T08:43:56;48.97;;;20.83;;
75437;SDS011;64015;49.392;15.582;2023-02-08T08:46:22;46.78;;;17.30;;
75437;SDS011;64015;49.392;15.582;2023-02-08T08:48:48;45.15;;;17.95;;
75437;SDS011;64015;49.392;15.582;2023-02-08T08:51:31;42.22;;;16.42;;
75437;SDS011;64015;49.392;15.582;2023-02-08T08:54:03;49.22;;;17.58;;
75437;SDS011;64015;49.392;15.582;2023-02-08T08:56:30;48.58;;;18.95;;
75437;SDS011;64015;49.392;15.582;2023-02-08T08:58:57;45.97;;;16.60;;
75437;SDS011;64015;49.392;15.582;2023-02-08T09:01:23;46.28;;;17.90;;
75437;SDS011;64015;49.392;15.582;2023-02-08T09:03:49;42.35;;;17.92;;
75437;SDS011;64015;49.392;15.582;2023-02-08T09:06:15;38.72;;;15.20;;
75437;SDS011;64015;49.392;15.582;2023-02-08T09:08:42;36.72;;;15.95;;
75437;SDS011;64015;49.392;15.582;2023-02-08T09:11:09;44.90;;;15.52;;
75437;SDS011;64015;49.392;15.582;2023-02-08T09:13:41;32.45;;;13.73;;
75437;SDS011;64015;49.392;15.582;2023-02-08T09:16:14;39.17;;;13.75;;
75437;SDS011;64015;49.392;15.582;2023-02-08T09:18:44;24.00;;;9.23;;
75437;SDS011;64015;49.392;15.582;2023-02-08T09:21:14;36.70;;;13.27;;
75437;SDS011;64015;49.392;15.582;2023-02-08T09:23:41;33.33;;;13.02;;
75437;SDS011;64015;49.392;15.582;2023-02-08T09:26:14;29.67;;;13.00;;
75437;SDS011;64015;49.392;15.582;2023-02-08T09:28:51;34.38;;;12.40;;
75437;SDS011;64015;49.392;15.582;2023-02-08T09:31:24;32.53;;;12.93;;
75437;SDS011;64015;49.392;15.582;2023-02-08T09:33:52;31.90;;;11.40;;
75437;SDS011;64015;49.392;15.582;2023-02-08T09:36:20;31.40;;;12.85;;
75437;SDS011;64015;49.392;15.582;2023-02-08T09:38:48;27.90;;;11.38;;
75437;SDS011;64015;49.392;15.582;2023-02-08T09:49:34;25.45;;;9.52;;
75437;SDS011;64015;49.392;15.582;2023-02-08T09:52:17;33.13;;;12.20;;
75437;SDS011;64015;49.392;15.582;2023-02-08T09:54:58;23.13;;;10.10;;
75437;SDS011;64015;49.392;15.582;2023-02-08T09:57:32;24.48;;;10.20;;
75437;SDS011;64015;49.392;15.582;2023-02-08T10:00:05;26.83;;;11.18;;
75437;SDS011;64015;49.392;15.582;2023-02-08T10:02:57;27.35;;;11.50;;
75437;SDS011;64015;49.392;15.582;2023-02-08T10:05:46;25.50;;;9.23;;
75437;SDS011;64015;49.392;15.582;2023-02-08T10:08:12;22.08;;;9.88;;
75437;SDS011;64015;49.392;15.582;2023-02-08T10:18:49;23.38;;;9.63;;
75437;SDS011;64015;49.392;15.582;2023-02-08T10:21:34;18.35;;;8.55;;
75437;SDS011;64015;49.392;15.582;2023-02-08T10:27:45;24.08;;;8.45;;
75437;SDS011;64015;49.392;15.582;2023-02-08T10:35:36;25.33;;;10.70;;
75437;SDS011;64015;49.392;15.582;2023-02-08T10:38:12;20.58;;;9.77;;
75437;SDS011;64015;49.392;15.582;2023-02-08T10:40:48;21.20;;;9.13;;
75437;SDS011;64015;49.392;15.582;2023-02-08T10:43:43;22.35;;;10.95;;
75437;SDS011;64015;49.392;15.582;2023-02-08T10:52:05;25.33;;;11.30;;
75437;SDS011;64015;49.392;15.582;2023-02-08T10:54:32;20.73;;;9.48;;
75437;SDS011;64015;49.392;15.582;2023-02-08T10:57:00;20.27;;;9.55;;
75437;SDS011;64015;49.392;15.582;2023-02-08T10:59:30;19.48;;;9.57;;
75437;SDS011;64015;49.392;15.582;2023-02-08T11:02:01;19.15;;;9.35;;
75437;SDS011;64015;49.392;15.582;2023-02-08T11:04:33;19.20;;;9.73;;
75437;SDS011;64015;49.392;15.582;2023-02-08T11:07:20;23.98;;;12.10;;
75437;SDS011;64015;49.392;15.582;2023-02-08T11:09:45;23.65;;;11.18;;
75437;SDS011;64015;49.392;15.582;2023-02-08T11:12:14;22.92;;;11.43;;
75437;SDS011;64015;49.392;15.582;2023-02-08T11:14:58;26.35;;;11.18;;
75437;SDS011;64015;49.392;15.582;2023-02-08T11:17:28;18.63;;;10.32;;
75437;SDS011;64015;49.392;15.582;2023-02-08T11:19:58;21.13;;;11.65;;
75437;SDS011;64015;49.392;15.582;2023-02-08T11:22:25;22.67;;;10.30;;
75437;SDS011;64015;49.392;15.582;2023-02-08T11:25:37;23.70;;;11.98;;
75437;SDS011;64015;49.392;15.582;2023-02-08T11:28:20;21.67;;;9.95;;
75437;SDS011;64015;49.392;15.582;2023-02-08T11:31:01;25.02;;;11.40;;
75437;SDS011;64015;49.392;15.582;2023-02-08T11:33:37;24.25;;;11.40;;
75437;SDS011;64015;49.392;15.582;2023-02-08T11:36:24;24.13;;;11.05;;
75437;SDS011;64015;49.392;15.582;2023-02-08T11:38:54;22.35;;;9.88;;
75437;SDS011;64015;49.392;15.582;2023-02-08T11:41:28;20.75;;;11.40;;
75437;SDS011;64015;49.392;15.582;2023-02-08T11:44:18;25.67;;;10.77;;
75437;SDS011;64015;49.392;15.582;2023-02-08T11:46:56;20.00;;;10.20;;
75437;SDS011;64015;49.392;15.582;2023-02-08T11:52:27;21.80;;;11.20;;
75437;SDS011;64015;49.392;15.582;2023-02-08T11:55:21;22.70;;;10.68;;
75437;SDS011;64015;49.392;15.582;2023-02-08T12:03:38;19.30;;;8.70;;
75437;SDS011;64015;49.392;15.582;2023-02-08T12:14:31;18.42;;;9.73;;
75437;SDS011;64015;49.392;15.582;2023-02-08T12:26:22;15.55;;;8.02;;
75437;SDS011;64015;49.392;15.582;2023-02-08T12:29:17;15.25;;;7.70;;
75437;SDS011;64015;49.392;15.582;2023-02-08T12:42:05;14.25;;;6.63;;
75437;SDS011;64015;49.392;15.582;2023-02-08T12:56:24;15.40;;;6.88;;
75437;SDS011;64015;49.392;15.582;2023-02-08T13:01:32;11.75;;;5.35;;
75437;SDS011;64015;49.392;15.582;2023-02-08T13:05:19;14.30;;;5.68;;
75437;SDS011;64015;49.392;15.582;2023-02-08T13:07:41;11.18;;;4.05;;
75437;SDS011;64015;49.392;15.582;2023-02-08T13:10:36;14.50;;;4.72;;
75437;SDS011;64015;49.392;15.582;2023-02-08T13:13:19;8.88;;;3.83;;
75437;SDS011;64015;49.392;15.582;2023-02-08T13:15:54;8.50;;;3.80;;
75437;SDS011;64015;49.392;15.582;2023-02-08T13:18:42;7.55;;;3.35;;
75437;SDS011;64015;49.392;15.582;2023-02-08T13:21:14;7.13;;;3.47;;
75437;SDS011;64015;49.392;15.582;2023-02-08T13:23:45;8.27;;;3.92;;
75437;SDS011;64015;49.392;15.582;2023-02-08T13:26:23;6.05;;;3.05;;
75437;SDS011;64015;49.392;15.582;2023-02-08T13:28:51;5.90;;;2.58;;
75437;SDS011;64015;49.392;15.582;2023-02-08T13:31:23;8.57;;;2.70;;
75437;SDS011;64015;49.392;15.582;2023-02-08T13:33:51;6.07;;;2.42;;
75437;SDS011;64015;49.392;15.582;2023-02-08T13:39:05;8.45;;;3.58;;
75437;SDS011;64015;49.392;15.582;2023-02-08T13:41:33;7.53;;;3.25;;
75437;SDS011;64015;49.392;15.582;2023-02-08T13:46:49;6.07;;;2.20;;
75437;SDS011;64015;49.392;15.582;2023-02-08T13:52:08;7.40;;;2.67;;
75437;SDS011;64015;49.392;15.582;2023-02-08T13:54:35;7.93;;;3.05;;
75437;SDS011;64015;49.392;15.582;2023-02-08T13:57:01;7.63;;;2.85;;
75437;SDS011;64015;49.392;15.582;2023-02-08T14:04:38;5.07;;;2.50;;
75437;SDS011;64015;49.392;15.582;2023-02-08T14:12:29;7.03;;;2.72;;
75437;SDS011;64015;49.392;15.582;2023-02-08T14:17:41;4.78;;;2.33;;
75437;SDS011;64015;49.392;15.582;2023-02-08T14:20:16;7.00;;;3.03;;
75437;SDS011;64015;49.392;15.582;2023-02-08T14:22:49;8.20;;;2.80;;
75437;SDS011;64015;49.392;15.582;2023-02-08T14:25:18;7.07;;;3.30;;
75437;SDS011;64015;49.392;15.582;2023-02-08T14:27:48;5.90;;;2.63;;
75437;SDS011;64015;49.392;15.582;2023-02-08T14:35:32;5.95;;;2.60;;
75437;SDS011;64015;49.392;15.582;2023-02-08T14:40:48;8.05;;;3.42;;
75437;SDS011;64015;49.392;15.582;2023-02-08T14:45:48;8.40;;;2.85;;
75437;SDS011;64015;49.392;15.582;2023-02-08T14:56:23;7.03;;;2.35;;
75437;SDS011;64015;49.392;15.582;2023-02-08T14:59:03;7.00;;;2.92;;
75437;SDS011;64015;49.392;15.582;2023-02-08T15:01:42;6.43;;;2.50;;
75437;SDS011;64015;49.392;15.582;2023-02-08T15:04:11;7.07;;;2.72;;
75437;SDS011;64015;49.392;15.582;2023-02-08T15:09:23;7.55;;;3.08;;
75437;SDS011;64015;49.392;15.582;2023-02-08T15:11:59;8.70;;;3.10;;
75437;SDS011;64015;49.392;15.582;2023-02-08T15:14:28;7.82;;;3.17;;
75437;SDS011;64015;49.392;15.582;2023-02-08T15:16:56;5.88;;;3.25;;
75437;SDS011;64015;49.392;15.582;2023-02-08T15:19:26;8.85;;;3.58;;
75437;SDS011;64015;49.392;15.582;2023-02-08T15:24:58;9.82;;;3.65;;
75437;SDS011;64015;49.392;15.582;2023-02-08T15:27:27;9.07;;;4.22;;
75437;SDS011;64015;49.392;15.582;2023-02-08T15:29:54;8.77;;;3.67;;
75437;SDS011;64015;49.392;15.582;2023-02-08T15:32:22;11.15;;;3.70;;
75437;SDS011;64015;49.392;15.582;2023-02-08T15:37:32;10.25;;;4.07;;
75437;SDS011;64015;49.392;15.582;2023-02-08T15:40:01;10.45;;;4.63;;
75437;SDS011;64015;49.392;15.582;2023-02-08T15:42:31;9.85;;;4.13;;
75437;SDS011;64015;49.392;15.582;2023-02-08T15:44:58;9.40;;;4.18;;
75437;SDS011;64015;49.392;15.582;2023-02-08T15:47:27;10.85;;;4.50;;
75437;SDS011;64015;49.392;15.582;2023-02-08T15:49:56;11.80;;;4.30;;
75437;SDS011;64015;49.392;15.582;2023-02-08T15:52:24;11.43;;;4.78;;
75437;SDS011;64015;49.392;15.582;2023-02-08T15:54:54;10.82;;;4.88;;
75437;SDS011;64015;49.392;15.582;2023-02-08T16:00:18;15.65;;;6.47;;
75437;SDS011;64015;49.392;15.582;2023-02-08T16:02:57;15.65;;;6.25;;
75437;SDS011;64015;49.392;15.582;2023-02-08T16:05:27;15.93;;;5.47;;
75437;SDS011;64015;49.392;15.582;2023-02-08T16:08:20;14.38;;;6.30;;
75437;SDS011;64015;49.392;15.582;2023-02-08T16:13:59;12.85;;;5.40;;
75437;SDS011;64015;49.392;15.582;2023-02-08T16:19:27;16.17;;;6.05;;
75437;SDS011;64015;49.392;15.582;2023-02-08T16:21:55;17.15;;;5.80;;
75437;SDS011;64015;49.392;15.582;2023-02-08T16:24:36;19.38;;;6.80;;
75437;SDS011;64015;49.392;15.582;2023-02-08T16:27:03;16.48;;;6.75;;
75437;SDS011;64015;49.392;15.582;2023-02-08T16:29:32;17.05;;;6.35;;
75437;SDS011;64015;49.392;15.582;2023-02-08T16:32:32;17.98;;;6.78;;
75437;SDS011;64015;49.392;15.582;2023-02-08T16:35:10;17.40;;;6.05;;
75437;SDS011;64015;49.392;15.582;2023-02-08T16:37:38;15.85;;;5.70;;
75437;SDS011;64015;49.392;15.582;2023-02-08T16:46:51;15.85;;;4.82;;
75437;SDS011;64015;49.392;15.582;2023-02-08T16:49:17;12.25;;;4.53;;
75437;SDS011;64015;49.392;15.582;2023-02-08T16:51:43;13.57;;;5.68;;
75437;SDS011;64015;49.392;15.582;2023-02-08T16:54:13;15.85;;;5.38;;
75437;SDS011;64015;49.392;15.582;2023-02-08T16:56:42;13.77;;;5.35;;
75437;SDS011;64015;49.392;15.582;2023-02-08T16:59:11;19.45;;;6.88;;
75437;SDS011;64015;49.392;15.582;2023-02-08T17:01:38;18.05;;;6.95;;
75437;SDS011;64015;49.392;15.582;2023-02-08T17:04:04;17.23;;;6.50;;
75437;SDS011;64015;49.392;15.582;2023-02-08T17:06:34;21.05;;;7.60;;
75437;SDS011;64015;49.392;15.582;2023-02-08T17:09:02;16.83;;;7.35;;
75437;SDS011;64015;49.392;15.582;2023-02-08T17:11:30;18.40;;;7.28;;
75437;SDS011;64015;49.392;15.582;2023-02-08T17:14:06;20.08;;;7.00;;
75437;SDS011;64015;49.392;15.582;2023-02-08T17:16:35;16.08;;;6.82;;
75437;SDS011;64015;49.392;15.582;2023-02-08T17:19:02;17.95;;;6.75;;
75437;SDS011;64015;49.392;15.582;2023-02-08T17:21:29;23.58;;;7.50;;
75437;SDS011;64015;49.392;15.582;2023-02-08T17:23:55;18.65;;;7.60;;
75437;SDS011;64015;49.392;15.582;2023-02-08T17:26:33;27.63;;;10.18;;
75437;SDS011;64015;49.392;15.582;2023-02-08T17:29:02;20.50;;;8.55;;
75437;SDS011;64015;49.392;15.582;2023-02-08T17:31:28;18.00;;;6.97;;
75437;SDS011;64015;49.392;15.582;2023-02-08T17:34:04;21.67;;;8.35;;
75437;SDS011;64015;49.392;15.582;2023-02-08T17:36:30;19.17;;;7.57;;
75437;SDS011;64015;49.392;15.582;2023-02-08T17:41:24;20.55;;;7.32;;
75437;SDS011;64015;49.392;15.582;2023-02-08T17:43:50;26.75;;;8.80;;
75437;SDS011;64015;49.392;15.582;2023-02-08T17:46:19;21.95;;;7.43;;
75437;SDS011;64015;49.392;15.582;2023-02-08T17:48:46;20.63;;;9.07;;
75437;SDS011;64015;49.392;15.582;2023-02-08T17:51:14;21.73;;;9.25;;
75437;SDS011;64015;49.392;15.582;2023-02-08T17:53:43;23.08;;;8.80;;
75437;SDS011;64015;49.392;15.582;2023-02-08T17:56:13;21.30;;;8.38;;
75437;SDS011;64015;49.392;15.582;2023-02-08T18:05:03;21.65;;;7.70;;
75437;SDS011;64015;49.392;15.582;2023-02-08T18:12:06;26.05;;;8.10;;
75437;SDS011;64015;49.392;15.582;2023-02-08T18:22:24;23.45;;;9.20;;
75437;SDS011;64015;49.392;15.582;2023-02-08T18:27:42;29.13;;;10.25;;
75437;SDS011;64015;49.392;15.582;2023-02-08T18:30:11;23.95;;;9.60;;
75437;SDS011;64015;49.392;15.582;2023-02-08T18:32:58;28.33;;;11.68;;
75437;SDS011;64015;49.392;15.582;2023-02-08T18:35:24;26.58;;;11.07;;
75437;SDS011;64015;49.392;15.582;2023-02-08T18:38:08;41.08;;;13.27;;
75437;SDS011;64015;49.392;15.582;2023-02-08T18:40:34;36.47;;;13.68;;
75437;SDS011;64015;49.392;15.582;2023-02-08T18:46:49;34.50;;;12.90;;
75437;SDS011;64015;49.392;15.582;2023-02-08T18:49:31;39.22;;;13.75;;
75437;SDS011;64015;49.392;15.582;2023-02-08T18:52:06;43.70;;;14.70;;
75437;SDS011;64015;49.392;15.582;2023-02-08T18:54:40;37.30;;;14.68;;
75437;SDS011;64015;49.392;15.582;2023-02-08T18:57:46;34.53;;;12.93;;
75437;SDS011;64015;49.392;15.582;2023-02-08T19:00:24;30.15;;;12.02;;
75437;SDS011;64015;49.392;15.582;2023-02-08T19:02:50;27.40;;;10.85;;
75437;SDS011;64015;49.392;15.582;2023-02-08T19:05:16;29.40;;;11.90;;
75437;SDS011;64015;49.392;15.582;2023-02-08T19:07:42;31.52;;;12.38;;
75437;SDS011;64015;49.392;15.582;2023-02-08T19:10:08;23.83;;;10.40;;
75437;SDS011;64015;49.392;15.582;2023-02-08T19:12:35;23.45;;;9.65;;
75437;SDS011;64015;49.392;15.582;2023-02-08T19:15:02;31.33;;;9.48;;
75437;SDS011;64015;49.392;15.582;2023-02-08T19:18:29;24.30;;;9.93;;
75437;SDS011;64015;49.392;15.582;2023-02-08T19:20:44;30.90;;;10.98;;
75437;SDS011;64015;49.392;15.582;2023-02-08T19:23:13;30.75;;;10.63;;
75437;SDS011;64015;49.392;15.582;2023-02-08T19:34:57;37.92;;;11.82;;
75437;SDS011;64015;49.392;15.582;2023-02-08T19:37:46;29.45;;;11.35;;
75437;SDS011;64015;49.392;15.582;2023-02-08T19:43:27;23.67;;;8.52;;
75437;SDS011;64015;49.392;15.582;2023-02-08T19:46:22;26.20;;;10.02;;
75437;SDS011;64015;49.392;15.582;2023-02-08T19:49:01;24.75;;;8.93;;
75437;SDS011;64015;49.392;15.582;2023-02-08T19:51:39;29.35;;;8.90;;
75437;SDS011;64015;49.392;15.582;2023-02-08T19:54:33;30.80;;;9.63;;
75437;SDS011;64015;49.392;15.582;2023-02-08T19:57:00;21.95;;;10.15;;
75437;SDS011;64015;49.392;15.582;2023-02-08T19:59:26;25.40;;;10.05;;
75437;SDS011;64015;49.392;15.582;2023-02-08T20:02:36;30.85;;;11.80;;
75437;SDS011;64015;49.392;15.582;2023-02-08T20:05:30;27.90;;;9.35;;
75437;SDS011;64015;49.392;15.582;2023-02-08T20:08:19;25.15;;;8.27;;
75437;SDS011;64015;49.392;15.582;2023-02-08T20:11:55;23.23;;;8.90;;
75437;SDS011;64015;49.392;15.582;2023-02-08T20:18:38;20.05;;;7.75;;
75437;SDS011;64015;49.392;15.582;2023-02-08T20:21:04;26.40;;;9.32;;
75437;SDS011;64015;49.392;15.582;2023-02-08T20:23:30;11.15;;;6.00;;
75437;SDS011;64015;49.392;15.582;2023-02-08T20:28:33;20.58;;;9.20;;
75437;SDS011;64015;49.392;15.582;2023-02-08T20:31:00;25.73;;;8.80;;
75437;SDS011;64015;49.392;15.582;2023-02-08T20:33:29;21.80;;;7.90;;
75437;SDS011;64015;49.392;15.582;2023-02-08T20:35:55;15.05;;;6.22;;
75437;SDS011;64015;49.392;15.582;2023-02-08T20:38:21;15.88;;;7.05;;
75437;SDS011;64015;49.392;15.582;2023-02-08T20:40:47;20.98;;;8.27;;
75437;SDS011;64015;49.392;15.582;2023-02-08T20:43:12;19.10;;;7.10;;
75437;SDS011;64015;49.392;15.582;2023-02-08T20:45:39;18.88;;;7.45;;